Atlantic Beach, Florida
Current Conditions -  °F | °C
As of 6:52 PM on Thursday 27 Nov 2014 (Local Time) from KNRB Reporting Station
Clear Clear  
Wind Chill: 51°   Ceiling: Unl
Heat Index: 51°   Visibility: 10mi
Dew Point: 36°   Wind: 5mph
Humidity: 56%   Direction: NA
Pressure: 30.27"   Gusts: NA
Location:  30.33°N, 81.4°W
Report Text: KNRB 272352Z AUTO VRB04KT 10SM CLR 11/02 A3027 RMK AO2 SLP248 60000 T01060022 10161 20106 53026 $
Loading
Personal Weather Stations






























Interactive Weather Map New forecast layout! Learn more

10-Day Weather Forecast

Advertisements
Track Severe Weather on mobile